createdAt,value
2019-02-19T00:00:52.986Z,81.50
2019-02-19T00:03:20.921Z,80.30
2019-02-19T00:05:49.045Z,80.20
2019-02-19T00:08:17.165Z,80.70
2019-02-19T00:10:45.348Z,80.70
2019-02-19T00:13:15.047Z,81.20
2019-02-19T00:15:43.129Z,81.70
2019-02-19T00:18:11.049Z,81.90
2019-02-19T00:20:39.238Z,83.10
2019-02-19T00:23:07.165Z,83.00
2019-02-19T00:25:35.392Z,82.20
2019-02-19T00:28:03.311Z,82.40
2019-02-19T00:30:31.237Z,81.90
2019-02-19T00:32:59.274Z,81.80
2019-02-19T00:35:27.166Z,82.90
2019-02-19T00:37:55.132Z,82.10
2019-02-19T00:40:23.209Z,82.70
2019-02-19T00:42:51.272Z,82.50
2019-02-19T00:45:19.451Z,81.90
2019-02-19T00:47:47.596Z,83.00
2019-02-19T00:50:15.584Z,83.00
2019-02-19T00:52:43.898Z,81.60
2019-02-19T00:55:11.920Z,80.90
2019-02-19T00:57:39.913Z,80.80
2019-02-19T01:00:08.810Z,80.70
2019-02-19T01:02:36.837Z,80.80
2019-02-19T01:05:05.429Z,81.10
2019-02-19T01:07:33.389Z,81.00
2019-02-19T01:10:01.951Z,81.10
2019-02-19T01:12:29.922Z,81.40
2019-02-19T01:14:58.014Z,81.70
2019-02-19T01:17:26.188Z,81.90
2019-02-19T01:19:55.259Z,82.00
2019-02-19T01:22:23.169Z,82.10
2019-02-19T01:24:51.172Z,82.50
2019-02-19T01:27:19.133Z,82.10
2019-02-19T01:29:47.183Z,82.10
2019-02-19T01:32:15.230Z,81.90
2019-02-19T01:34:44.763Z,81.90
2019-02-19T01:37:12.721Z,82.00
2019-02-19T01:39:41.084Z,81.90
2019-02-19T01:42:09.760Z,81.90
2019-02-19T01:44:39.632Z,82.00
2019-02-19T01:47:07.792Z,82.00
2019-02-19T01:49:35.852Z,82.00
2019-02-19T01:52:03.949Z,81.80
2019-02-19T01:54:32.098Z,81.60
2019-02-19T01:57:00.207Z,81.70
2019-02-19T01:59:28.355Z,82.00
2019-02-19T02:01:57.841Z,81.90
2019-02-19T02:04:25.829Z,81.80
2019-02-19T02:06:53.812Z,81.90
2019-02-19T02:09:21.897Z,81.70
2019-02-19T02:11:50.065Z,82.00
2019-02-19T02:14:18.117Z,82.90
2019-02-19T02:16:46.136Z,83.00
2019-02-19T02:19:15.357Z,82.50
2019-02-19T02:21:43.284Z,81.80
2019-02-19T02:24:11.503Z,81.10
2019-02-19T02:26:39.523Z,81.00
2019-02-19T02:29:07.744Z,80.80
2019-02-19T02:31:35.974Z,80.50
2019-02-19T02:34:03.866Z,80.70
2019-02-19T02:36:31.782Z,80.80
2019-02-19T02:39:03.404Z,80.90
2019-02-19T02:41:31.413Z,80.60
2019-02-19T02:43:59.591Z,80.80
2019-02-19T02:46:27.476Z,80.90
2019-02-19T02:48:55.560Z,81.00
2019-02-19T02:51:23.530Z,80.70
2019-02-19T02:53:52.712Z,80.30
2019-02-19T02:56:20.584Z,80.40
2019-02-19T02:58:49.288Z,80.40
2019-02-19T03:01:17.250Z,80.40
2019-02-19T03:03:45.233Z,80.60
2019-02-19T03:06:21.831Z,80.30
2019-02-19T03:08:49.772Z,80.40
2019-02-19T03:11:17.999Z,80.80
2019-02-19T03:13:45.988Z,80.30
2019-02-19T03:16:14.052Z,80.20
2019-02-19T03:18:41.981Z,80.30
2019-02-19T03:21:09.888Z,80.10
2019-02-19T03:23:37.988Z,80.00
2019-02-19T03:26:05.857Z,80.40
2019-02-19T03:28:33.689Z,80.70
2019-02-19T03:31:01.567Z,80.70
2019-02-19T03:33:29.429Z,80.20
2019-02-19T03:35:57.375Z,79.70
2019-02-19T03:38:25.274Z,79.80
2019-02-19T03:40:53.199Z,80.00
2019-02-19T03:43:21.127Z,79.80
2019-02-19T03:45:48.993Z,79.80
2019-02-19T03:48:17.754Z,79.80
2019-02-19T03:50:45.712Z,80.00
2019-02-19T03:53:13.696Z,80.60
2019-02-19T03:55:43.672Z,80.80
2019-02-19T03:58:11.641Z,80.60
2019-02-19T04:00:39.428Z,80.30
2019-02-19T04:03:07.524Z,79.90
2019-02-19T04:05:35.592Z,79.70
2019-02-19T04:08:03.503Z,79.30
2019-02-19T04:10:31.358Z,79.20
2019-02-19T04:12:59.381Z,79.80
2019-02-19T04:15:27.303Z,79.80
2019-02-19T04:17:55.259Z,80.30
2019-02-19T04:20:23.277Z,80.20
2019-02-19T04:22:51.323Z,79.80
2019-02-19T04:25:19.143Z,79.60
2019-02-19T04:27:48.756Z,79.60
2019-02-19T04:30:17.384Z,79.70
2019-02-19T04:32:45.649Z,79.80
2019-02-19T04:35:14.822Z,80.30
2019-02-19T04:37:42.729Z,80.00
2019-02-19T04:40:10.781Z,79.60
2019-02-19T04:42:38.840Z,79.30
2019-02-19T04:45:07.044Z,79.30
2019-02-19T04:47:35.249Z,79.50
2019-02-19T04:50:04.288Z,79.50
2019-02-19T04:52:32.643Z,79.70
2019-02-19T04:55:01.624Z,79.70
2019-02-19T04:57:29.730Z,79.70
2019-02-19T04:59:57.999Z,79.90
2019-02-19T05:02:26.297Z,79.30
2019-02-19T05:04:58.174Z,79.00
2019-02-19T05:07:28.691Z,79.20
2019-02-19T05:10:03.672Z,79.50
2019-02-19T05:12:45.300Z,79.60
2019-02-19T05:15:10.539Z,79.60
2019-02-19T05:17:53.145Z,79.70
2019-02-19T05:20:32.368Z,79.70
2019-02-19T05:23:30.609Z,80.00
2019-02-19T05:26:15.183Z,79.80
2019-02-19T05:28:54.666Z,80.10
2019-02-19T05:31:38.876Z,79.80
2019-02-19T05:34:06.766Z,79.60
2019-02-19T05:36:35.621Z,79.60
2019-02-19T05:39:07.760Z,80.00
2019-02-19T05:41:37.053Z,80.10
2019-02-19T05:44:05.257Z,80.00
2019-02-19T05:46:35.433Z,79.70
2019-02-19T05:49:03.514Z,79.50
2019-02-19T05:51:31.700Z,79.40
2019-02-19T05:53:59.650Z,79.60
2019-02-19T05:56:28.198Z,79.80
2019-02-19T05:58:59.263Z,79.80
2019-02-19T06:01:30.863Z,79.90
2019-02-19T06:03:58.875Z,79.90
2019-02-19T06:06:26.894Z,80.00
2019-02-19T06:08:55.020Z,80.20
2019-02-19T06:11:22.630Z,80.10
2019-02-19T06:13:50.228Z,80.10
2019-02-19T06:16:17.826Z,80.20
2019-02-19T06:18:45.453Z,80.20
2019-02-19T06:21:13.031Z,80.20
2019-02-19T06:23:40.724Z,79.90
2019-02-19T06:26:08.410Z,79.80
2019-02-19T06:28:35.892Z,79.80
2019-02-19T06:31:03.592Z,79.80
2019-02-19T06:33:31.253Z,79.60
2019-02-19T06:35:58.737Z,79.40
2019-02-19T06:38:26.442Z,79.30
2019-02-19T06:40:54.012Z,79.40
2019-02-19T06:43:21.621Z,79.70
2019-02-19T06:45:49.580Z,79.70
2019-02-19T06:48:17.401Z,79.50
2019-02-19T06:50:45.018Z,79.40
2019-02-19T06:53:12.639Z,79.30
2019-02-19T06:55:40.337Z,79.20
2019-02-19T06:58:07.932Z,79.20
2019-02-19T07:00:36.178Z,79.10
2019-02-19T07:03:17.840Z,79.00
2019-02-19T07:05:45.498Z,79.00
2019-02-19T07:08:13.186Z,79.00
2019-02-19T07:10:40.732Z,79.10
2019-02-19T07:13:08.582Z,79.30
2019-02-19T07:15:36.183Z,79.20
2019-02-19T07:18:03.936Z,79.10
2019-02-19T07:20:31.988Z,79.10
2019-02-19T07:22:59.594Z,79.00
2019-02-19T07:25:28.392Z,78.90
2019-02-19T07:27:56.157Z,78.50
2019-02-19T07:30:23.850Z,78.40
2019-02-19T07:32:51.557Z,78.50
2019-02-19T07:35:20.808Z,78.60
2019-02-19T07:38:08.448Z,78.90
2019-02-19T07:40:41.146Z,78.90
2019-02-19T07:43:24.424Z,78.90
2019-02-19T07:45:56.256Z,79.10
2019-02-19T07:48:29.418Z,78.80
2019-02-19T07:50:59.040Z,78.70
2019-02-19T07:53:30.417Z,78.60
2019-02-19T07:56:00.578Z,78.70
2019-02-19T07:58:31.308Z,78.90
2019-02-19T08:00:59.297Z,79.10
2019-02-19T08:03:27.301Z,79.20
2019-02-19T08:05:55.259Z,78.50
2019-02-19T08:08:23.147Z,78.50
2019-02-19T08:10:51.084Z,79.00
2019-02-19T08:13:18.942Z,79.90
2019-02-19T08:15:46.874Z,80.50
2019-02-19T08:18:14.638Z,81.40
2019-02-19T08:20:42.480Z,81.90
2019-02-19T08:23:10.254Z,82.40
2019-02-19T08:25:38.011Z,82.70
2019-02-19T08:28:05.860Z,83.10
2019-02-19T08:30:33.562Z,83.40
2019-02-19T08:33:01.236Z,83.70
2019-02-19T08:35:29.044Z,83.60
2019-02-19T08:37:57.364Z,80.30
2019-02-19T08:40:25.094Z,75.90
2019-02-19T08:42:53.303Z,71.00
2019-02-19T08:45:21.327Z,70.30
2019-02-19T08:47:49.698Z,73.70
2019-02-19T08:50:18.568Z,71.90
2019-02-19T08:52:49.778Z,67.60
2019-02-19T08:55:18.355Z,65.60
2019-02-19T08:57:46.417Z,67.70
2019-02-19T09:00:14.672Z,66.80
2019-02-19T09:02:42.698Z,66.60
2019-02-19T09:05:11.072Z,67.00
2019-02-19T09:07:40.498Z,65.70
2019-02-19T09:10:11.596Z,64.60
2019-02-19T09:12:39.986Z,64.80
2019-02-19T09:15:08.736Z,63.60
2019-02-19T09:17:36.460Z,63.70
2019-02-19T09:20:04.777Z,63.10
2019-02-19T09:22:32.356Z,65.60
2019-02-19T09:25:00.058Z,63.30
2019-02-19T09:27:29.690Z,63.60
2019-02-19T09:29:57.308Z,62.30
2019-02-19T09:32:25.253Z,62.30
2019-02-19T09:34:53.279Z,62.60
2019-02-19T09:37:21.426Z,62.50
2019-02-19T09:39:49.069Z,61.50
2019-02-19T09:42:16.767Z,62.60
2019-02-19T09:44:44.370Z,61.80
2019-02-19T09:47:15.179Z,60.60
2019-02-19T09:49:42.828Z,59.90
2019-02-19T09:52:10.595Z,59.40
2019-02-19T09:54:39.665Z,58.70
2019-02-19T09:57:07.608Z,58.20
2019-02-19T09:59:35.457Z,58.60
2019-02-19T10:02:05.470Z,56.50
2019-02-19T10:04:33.319Z,57.20
2019-02-19T10:07:01.334Z,57.00
2019-02-19T10:09:29.336Z,56.50
2019-02-19T10:11:57.446Z,55.80
2019-02-19T10:14:25.476Z,55.80
2019-02-19T10:16:56.785Z,55.80
2019-02-19T10:19:26.031Z,56.30
2019-02-19T10:22:09.249Z,53.80
2019-02-19T10:25:00.558Z,53.60
2019-02-19T10:27:50.890Z,52.90
2019-02-19T10:30:22.592Z,51.50
2019-02-19T10:32:50.668Z,51.00
2019-02-19T10:35:19.038Z,51.50
2019-02-19T10:37:52.972Z,51.30
2019-02-19T10:40:21.209Z,49.50
2019-02-19T10:42:49.297Z,49.60
2019-02-19T10:45:17.985Z,50.50
2019-02-19T10:47:46.469Z,50.90
2019-02-19T10:50:14.735Z,50.20
2019-02-19T10:52:43.023Z,50.10
2019-02-19T10:55:11.653Z,50.60
2019-02-19T10:57:39.348Z,50.00
2019-02-19T11:00:10.556Z,48.90
2019-02-19T11:02:38.231Z,48.60
2019-02-19T11:05:05.942Z,48.00
2019-02-19T11:07:33.707Z,47.40
2019-02-19T11:10:02.034Z,45.80
2019-02-19T11:12:29.724Z,45.40
2019-02-19T11:14:57.320Z,46.20
2019-02-19T11:17:25.181Z,45.40
2019-02-19T11:19:52.896Z,44.80
2019-02-19T11:22:20.656Z,44.60
2019-02-19T11:24:48.391Z,43.10
2019-02-19T11:27:16.745Z,42.90
2019-02-19T11:29:44.549Z,42.20
2019-02-19T11:32:12.273Z,41.90
2019-02-19T11:34:40.197Z,41.30
2019-02-19T11:37:08.244Z,41.30
2019-02-19T11:39:36.088Z,40.80
2019-02-19T11:42:04.868Z,41.10
2019-02-19T11:44:32.544Z,41.90
2019-02-19T11:47:00.128Z,41.50
2019-02-19T11:49:27.769Z,41.10
2019-02-19T11:51:55.575Z,40.80
2019-02-19T11:54:23.310Z,40.50
2019-02-19T11:56:51.040Z,40.40
2019-02-19T11:59:18.844Z,39.00
2019-02-19T12:01:46.594Z,39.70
2019-02-19T12:04:14.280Z,39.30
2019-02-19T12:06:42.253Z,39.30
2019-02-19T12:09:10.294Z,39.30
2019-02-19T12:11:38.293Z,38.60
2019-02-19T12:14:07.601Z,39.00
2019-02-19T12:16:35.472Z,39.40
2019-02-19T12:19:07.546Z,39.50
2019-02-19T12:21:35.411Z,39.80
2019-02-19T12:24:03.246Z,40.20
2019-02-19T12:26:34.323Z,40.70
2019-02-19T12:29:02.170Z,40.00
2019-02-19T12:31:29.828Z,39.80
2019-02-19T12:33:57.598Z,39.90
2019-02-19T12:36:32.478Z,40.30
2019-02-19T12:39:01.677Z,39.60
2019-02-19T12:41:29.491Z,39.90
2019-02-19T12:43:57.590Z,40.80
2019-02-19T12:46:25.487Z,41.30
2019-02-19T12:48:54.871Z,39.70
2019-02-19T12:51:26.504Z,40.10
2019-02-19T12:53:52.682Z,40.20
2019-02-19T12:56:20.789Z,40.90
2019-02-19T12:58:48.929Z,41.30
2019-02-19T13:01:19.097Z,41.40
2019-02-19T13:03:47.158Z,42.10
2019-02-19T13:06:16.146Z,41.20
2019-02-19T13:08:46.797Z,41.60
2019-02-19T13:11:16.458Z,40.90
2019-02-19T13:13:44.834Z,41.30
2019-02-19T13:16:13.060Z,40.20
2019-02-19T13:18:41.438Z,39.90
2019-02-19T13:21:09.439Z,40.20
2019-02-19T13:23:37.235Z,39.50
2019-02-19T13:26:05.402Z,39.20
2019-02-19T13:28:33.232Z,39.00
2019-02-19T13:31:00.829Z,39.30
2019-02-19T13:33:28.806Z,39.00
2019-02-19T13:35:56.387Z,39.40
2019-02-19T13:38:23.936Z,38.90
2019-02-19T13:40:51.594Z,39.10
2019-02-19T13:43:19.329Z,38.40
2019-02-19T13:45:47.184Z,38.20
2019-02-19T13:48:14.839Z,38.50
2019-02-19T13:50:42.522Z,38.40
2019-02-19T13:53:14.558Z,38.30
2019-02-19T13:55:45.701Z,37.90
2019-02-19T13:58:13.403Z,37.70
2019-02-19T14:00:42.246Z,37.70
2019-02-19T14:03:09.820Z,38.10
2019-02-19T14:05:37.546Z,37.60
2019-02-19T14:08:13.986Z,37.30
2019-02-19T14:10:36.238Z,37.60
2019-02-19T14:13:04.032Z,38.30
2019-02-19T14:15:43.750Z,39.20
2019-02-19T14:18:12.211Z,39.00
2019-02-19T14:20:57.824Z,39.60
2019-02-19T14:23:43.353Z,39.70
2019-02-19T14:26:33.378Z,39.00
2019-02-19T14:29:26.152Z,39.40
2019-02-19T14:32:13.159Z,39.90
2019-02-19T14:34:59.536Z,40.10
2019-02-19T14:37:43.690Z,40.10
2019-02-19T14:40:49.142Z,40.40
2019-02-19T14:43:33.187Z,41.20
2019-02-19T14:46:23.141Z,40.60
2019-02-19T14:49:18.863Z,41.80
2019-02-19T14:52:08.662Z,42.30
2019-02-19T14:55:07.354Z,42.20
2019-02-19T14:57:44.071Z,42.50
2019-02-19T15:00:31.869Z,42.40
2019-02-19T15:03:31.140Z,42.50
2019-02-19T15:06:30.242Z,42.20
2019-02-19T15:09:08.832Z,42.30
2019-02-19T15:11:56.292Z,42.60
2019-02-19T15:14:43.816Z,42.80
2019-02-19T15:17:33.936Z,43.70
2019-02-19T15:20:18.683Z,43.10
2019-02-19T15:23:05.404Z,43.30
2019-02-19T15:26:10.547Z,43.40
2019-02-19T15:28:52.617Z,43.60
2019-02-19T15:31:48.698Z,43.80
2019-02-19T15:34:37.289Z,43.60
2019-02-19T15:37:33.314Z,44.40
2019-02-19T15:40:19.192Z,44.20
2019-02-19T15:43:09.334Z,44.40
2019-02-19T15:46:08.423Z,44.70
2019-02-19T15:49:14.652Z,45.40
2019-02-19T15:52:18.005Z,45.30
2019-02-19T15:55:22.013Z,45.40
2019-02-19T15:58:09.040Z,45.70
2019-02-19T16:01:06.535Z,46.10
2019-02-19T16:04:00.267Z,46.10
2019-02-19T16:06:55.286Z,46.00
2019-02-19T16:09:42.123Z,45.70
2019-02-19T16:12:32.039Z,45.20
2019-02-19T16:15:15.113Z,45.60
2019-02-19T16:18:05.508Z,46.00
2019-02-19T16:20:55.625Z,46.10
2019-02-19T16:23:44.078Z,46.90
2019-02-19T16:26:31.449Z,46.70
2019-02-19T16:29:26.461Z,46.90
2019-02-19T16:32:22.699Z,47.60
2019-02-19T16:35:17.890Z,47.40
2019-02-19T16:38:03.885Z,47.50
2019-02-19T16:40:39.782Z,47.30
2019-02-19T16:43:33.160Z,47.40
2019-02-19T16:46:23.740Z,47.40
2019-02-19T16:49:11.384Z,47.40
2019-02-19T16:52:11.018Z,47.40
2019-02-19T16:54:50.848Z,47.40
2019-02-19T16:57:32.561Z,47.80
2019-02-19T17:00:26.499Z,48.00
2019-02-19T17:03:10.441Z,48.30
2019-02-19T17:05:59.442Z,48.00
2019-02-19T17:08:56.586Z,48.20
2019-02-19T17:11:45.030Z,48.00
2019-02-19T17:14:36.685Z,48.20
2019-02-19T17:17:13.940Z,48.20
2019-02-19T17:20:26.247Z,48.50
2019-02-19T17:23:02.503Z,49.30
2019-02-19T17:26:00.657Z,49.40
2019-02-19T17:28:51.390Z,49.90
2019-02-19T17:31:33.808Z,49.60
2019-02-19T17:34:10.624Z,50.80
2019-02-19T17:36:52.665Z,51.30
2019-02-19T17:39:57.928Z,51.60
2019-02-19T17:42:39.920Z,51.80
2019-02-19T17:45:25.944Z,52.50
2019-02-19T17:48:28.559Z,52.20
2019-02-19T17:51:21.322Z,52.10
2019-02-19T17:54:27.016Z,52.00
2019-02-19T17:57:17.050Z,51.60
2019-02-19T18:00:06.070Z,51.50
2019-02-19T18:02:52.781Z,52.10
2019-02-19T18:05:52.182Z,52.70
2019-02-19T18:08:32.365Z,52.90
2019-02-19T18:11:18.727Z,53.60
2019-02-19T18:14:06.483Z,53.80
2019-02-19T18:17:01.961Z,54.10
2019-02-19T18:19:30.303Z,54.50
2019-02-19T18:21:58.720Z,54.50
2019-02-19T18:24:27.894Z,54.70
2019-02-19T18:26:56.062Z,55.40
2019-02-19T18:29:25.568Z,55.80
2019-02-19T18:32:01.611Z,56.00
2019-02-19T18:34:31.614Z,56.40
2019-02-19T18:37:37.661Z,56.50
2019-02-19T18:40:05.726Z,56.90
2019-02-19T18:42:38.178Z,56.90
2019-02-19T18:45:14.188Z,57.70
2019-02-19T18:47:46.243Z,58.40
2019-02-19T18:50:14.761Z,59.20
2019-02-19T18:52:42.899Z,60.10
2019-02-19T18:55:12.059Z,60.90
2019-02-19T18:57:40.303Z,61.30
2019-02-19T19:00:13.195Z,61.30
2019-02-19T19:02:49.329Z,61.40
2019-02-19T19:05:32.691Z,61.30
2019-02-19T19:07:55.886Z,61.50
2019-02-19T19:10:44.695Z,61.70
2019-02-19T19:13:17.856Z,61.80
2019-02-19T19:15:53.290Z,61.90
2019-02-19T19:18:27.677Z,62.10
2019-02-19T19:20:56.880Z,62.20
2019-02-19T19:23:59.391Z,62.60
2019-02-19T19:30:06.895Z,63.00
2019-02-19T19:32:36.888Z,63.40
2019-02-19T19:38:08.528Z,63.40
2019-02-19T19:41:02.825Z,63.20
2019-02-19T19:44:01.142Z,63.70
2019-02-19T19:46:31.808Z,64.00
2019-02-19T19:49:01.187Z,64.00
2019-02-19T19:51:29.580Z,64.00
2019-02-19T19:54:02.316Z,65.00
2019-02-19T19:56:34.389Z,65.50
2019-02-19T19:59:10.457Z,65.70
2019-02-19T20:01:48.625Z,65.70
2019-02-19T20:04:17.348Z,66.20
2019-02-19T20:06:56.978Z,65.60
2019-02-19T20:09:29.758Z,65.10
2019-02-19T20:12:28.749Z,64.80
2019-02-19T20:15:03.689Z,64.60
2019-02-19T20:17:46.422Z,64.70
2019-02-19T20:20:20.231Z,64.60
2019-02-19T20:22:50.576Z,64.40
2019-02-19T20:25:19.276Z,64.60
2019-02-19T20:27:49.803Z,64.90
2019-02-19T20:30:22.217Z,64.90
2019-02-19T20:32:51.266Z,65.20
2019-02-19T20:35:41.217Z,65.60
2019-02-19T20:38:06.025Z,66.30
2019-02-19T20:40:36.381Z,66.00
2019-02-19T20:43:11.950Z,65.90
2019-02-19T20:45:42.229Z,66.10
2019-02-19T20:48:10.525Z,65.50
2019-02-19T20:50:42.393Z,65.30
2019-02-19T20:53:16.010Z,65.20
2019-02-19T20:55:57.418Z,64.70
2019-02-19T21:01:14.704Z,64.30
2019-02-19T21:03:44.140Z,64.30
2019-02-19T21:06:21.939Z,64.30
2019-02-19T21:08:52.367Z,64.20
2019-02-19T21:11:35.592Z,64.20
2019-02-19T21:14:20.624Z,64.10
2019-02-19T21:16:52.187Z,64.00
2019-02-19T21:19:26.586Z,64.10
2019-02-19T21:21:56.727Z,64.00
2019-02-19T21:24:34.866Z,64.10
2019-02-19T21:27:08.802Z,64.30
2019-02-19T21:29:47.530Z,64.40
2019-02-19T21:32:23.022Z,64.50
2019-02-19T21:34:55.164Z,64.60
2019-02-19T21:37:50.341Z,65.00
2019-02-19T21:40:44.227Z,65.50
2019-02-19T21:43:14.319Z,65.50
2019-02-19T21:45:47.058Z,66.00
2019-02-19T21:48:21.489Z,66.70
2019-02-19T21:50:50.813Z,67.30
2019-02-19T21:53:30.439Z,68.10
2019-02-19T21:56:04.280Z,69.10
2019-02-19T21:58:44.253Z,69.30
2019-02-19T22:01:12.464Z,69.20
2019-02-19T22:03:41.409Z,69.60
2019-02-19T22:06:09.888Z,70.00
2019-02-19T22:08:38.614Z,69.80
2019-02-19T22:11:10.428Z,69.70
2019-02-19T22:13:38.665Z,70.00
2019-02-19T22:16:07.572Z,70.20
2019-02-19T22:18:36.510Z,69.90
2019-02-19T22:21:19.553Z,69.60
2019-02-19T22:23:50.129Z,69.50
2019-02-19T22:26:18.929Z,69.40
2019-02-19T22:28:47.940Z,69.30
2019-02-19T22:31:16.850Z,69.00
2019-02-19T22:33:49.374Z,68.10
2019-02-19T22:36:22.391Z,67.20
2019-02-19T22:39:03.086Z,66.50
2019-02-19T22:41:35.944Z,65.90
2019-02-19T22:44:13.663Z,65.80
2019-02-19T22:46:52.660Z,65.50
2019-02-19T22:49:20.530Z,65.40
2019-02-19T22:52:12.530Z,65.60
2019-02-19T22:55:05.225Z,65.70
2019-02-19T22:57:38.308Z,65.90
2019-02-19T23:00:13.897Z,65.70
2019-02-19T23:03:07.450Z,65.80
2019-02-19T23:05:44.372Z,66.30
2019-02-19T23:08:15.492Z,66.30
2019-02-19T23:10:44.015Z,66.50
2019-02-19T23:13:19.241Z,66.40
2019-02-19T23:15:49.303Z,66.30
2019-02-19T23:18:18.085Z,66.20
2019-02-19T23:20:47.786Z,66.10
2019-02-19T23:23:21.286Z,66.20
2019-02-19T23:25:54.260Z,66.30
2019-02-19T23:28:23.301Z,66.10
2019-02-19T23:31:01.364Z,66.20
2019-02-19T23:33:40.370Z,66.30
2019-02-19T23:36:22.347Z,65.60
2019-02-19T23:39:04.739Z,65.60
2019-02-19T23:41:41.555Z,65.40
2019-02-19T23:44:09.652Z,65.10
2019-02-19T23:46:41.415Z,65.10
2019-02-19T23:49:12.310Z,65.20
2019-02-19T23:51:45.679Z,64.90
2019-02-19T23:54:14.604Z,64.90
2019-02-19T23:56:46.493Z,65.20
2019-02-19T23:59:34.483Z,64.80
